createdAt,value
2019-03-04T00:02:08.436Z,97359.56
2019-03-04T00:07:13.933Z,97367.05
2019-03-04T00:12:19.103Z,97372.42
2019-03-04T00:17:25.317Z,97368.38
2019-03-04T00:22:30.540Z,97366.39
2019-03-04T00:27:35.798Z,97378.22
2019-03-04T00:32:41.134Z,97391.92
2019-03-04T00:37:46.442Z,97401.92
2019-03-04T00:42:51.724Z,97408.40
2019-03-04T00:47:57.048Z,97415.61
2019-03-04T00:53:02.263Z,97427.15
2019-03-04T00:58:07.512Z,97436.58
2019-03-04T01:03:12.972Z,97440.52
2019-03-04T01:08:18.206Z,97454.38
2019-03-04T01:13:24.757Z,97456.27
2019-03-04T01:18:30.018Z,97470.55
2019-03-04T01:23:35.265Z,97476.13
2019-03-04T01:28:40.535Z,97491.23
2019-03-04T01:33:45.758Z,97502.50
2019-03-04T01:38:51.169Z,97520.17
2019-03-04T01:43:56.387Z,97524.84
2019-03-04T01:49:01.634Z,97536.39
2019-03-04T01:54:06.928Z,97537.17
2019-03-04T01:59:12.101Z,97547.47
2019-03-04T02:04:17.513Z,97560.27
2019-03-04T02:09:23.402Z,97561.38
2019-03-04T02:14:28.652Z,97566.16
2019-03-04T02:19:33.932Z,97580.14
2019-03-04T02:24:39.160Z,97581.46
2019-03-04T02:29:44.473Z,97583.52
2019-03-04T02:34:49.760Z,97587.27
2019-03-04T02:39:55.144Z,97594.95
2019-03-04T02:45:00.407Z,97596.98
2019-03-04T02:50:06.688Z,97609.27
2019-03-04T02:55:11.938Z,97614.77
2019-03-04T03:00:17.987Z,97627.73
2019-03-04T03:05:23.285Z,97633.38
2019-03-04T03:10:28.464Z,97642.64
2019-03-04T03:15:33.663Z,97644.50
2019-03-04T03:20:38.862Z,97653.56
2019-03-04T03:25:44.118Z,97659.81
2019-03-04T03:30:49.322Z,97669.95
2019-03-04T03:35:54.619Z,97668.12
2019-03-04T03:40:59.928Z,97681.55
2019-03-04T03:46:05.294Z,97684.12
2019-03-04T03:51:10.619Z,97699.63
2019-03-04T03:56:15.849Z,97708.96
2019-03-04T04:01:21.268Z,97719.34
2019-03-04T04:06:26.545Z,97723.56
2019-03-04T04:11:31.856Z,97731.27
2019-03-04T04:16:37.096Z,97739.08
2019-03-04T04:21:42.466Z,97747.48
2019-03-04T04:26:47.768Z,97753.30
2019-03-04T04:31:53.029Z,97766.70
2019-03-04T04:36:58.245Z,97783.10
2019-03-04T04:42:03.693Z,97791.78
2019-03-04T04:47:10.603Z,97811.99
2019-03-04T04:52:15.794Z,97820.96
2019-03-04T04:57:21.054Z,97823.61
2019-03-04T05:02:26.363Z,97846.28
2019-03-04T05:07:31.671Z,97854.57
2019-03-04T05:12:36.986Z,97860.66
2019-03-04T05:17:42.357Z,97877.88
2019-03-04T05:22:47.648Z,97882.58
2019-03-04T05:27:52.923Z,97886.10
2019-03-04T05:32:58.243Z,97899.73
2019-03-04T05:38:03.733Z,97904.41
2019-03-04T05:43:09.011Z,97910.77
2019-03-04T05:48:14.287Z,97917.72
2019-03-04T05:53:19.572Z,97932.06
2019-03-04T05:58:24.798Z,97935.41
2019-03-04T06:03:30.148Z,97939.45
2019-03-04T06:08:35.497Z,97941.64
2019-03-04T06:13:40.663Z,97953.44
2019-03-04T06:18:45.933Z,97962.50
2019-03-04T06:23:51.188Z,97958.14
2019-03-04T06:28:56.348Z,97979.03
2019-03-04T06:34:01.714Z,97993.09
2019-03-04T06:39:08.632Z,97999.08
2019-03-04T06:44:13.818Z,98003.81
2019-03-04T06:49:19.126Z,98011.71
2019-03-04T06:54:38.144Z,98016.36
2019-03-04T07:00:12.193Z,98025.13
2019-03-04T07:05:35.377Z,98030.73
2019-03-04T07:10:40.738Z,98054.44
2019-03-04T07:15:46.271Z,98059.42
2019-03-04T07:20:51.599Z,98062.55
2019-03-04T07:25:56.867Z,98078.01
2019-03-04T07:31:02.294Z,98088.40
2019-03-04T07:36:08.160Z,98090.73
2019-03-04T07:41:13.605Z,98101.75
2019-03-04T07:46:19.027Z,98104.35
2019-03-04T07:51:24.257Z,98106.43
2019-03-04T07:56:29.629Z,98112.86
2019-03-04T08:01:34.958Z,98113.88
2019-03-04T08:06:40.383Z,98118.37
2019-03-04T08:12:15.237Z,98121.40
2019-03-04T08:17:20.500Z,98144.39
2019-03-04T08:22:26.086Z,98147.27
2019-03-04T08:27:31.418Z,98144.36
2019-03-04T08:32:36.657Z,98162.21
2019-03-04T08:37:42.107Z,98177.80
2019-03-04T08:42:47.363Z,98202.02
2019-03-04T08:47:55.677Z,98200.90
2019-03-04T08:53:00.877Z,98217.82
2019-03-04T08:58:06.237Z,98218.37
2019-03-04T09:03:11.557Z,98222.17
2019-03-04T09:08:16.885Z,98239.17
2019-03-04T09:13:22.387Z,98248.83
2019-03-04T09:18:27.741Z,98250.76
2019-03-04T09:23:32.998Z,98278.19
2019-03-04T09:28:38.484Z,98290.75
2019-03-04T09:33:43.833Z,98297.94
2019-03-04T09:38:49.135Z,98303.66
2019-03-04T09:43:54.322Z,98312.62
2019-03-04T09:48:59.647Z,98306.44
2019-03-04T09:54:04.994Z,98328.48
2019-03-04T09:59:10.418Z,98330.52
2019-03-04T10:04:26.743Z,98346.09
2019-03-04T10:09:46.288Z,98363.09
2019-03-04T10:15:08.338Z,98372.38
2019-03-04T10:20:36.298Z,98379.48
2019-03-04T10:25:57.102Z,98384.34
2019-03-04T10:31:20.088Z,98391.88
2019-03-04T10:36:45.297Z,98396.26
2019-03-04T10:42:10.749Z,98396.54
2019-03-04T10:47:16.168Z,98436.98
2019-03-04T10:52:22.525Z,98439.66
2019-03-04T10:57:27.958Z,98446.09
2019-03-04T11:02:33.203Z,98459.97
2019-03-04T11:07:39.523Z,98471.69
2019-03-04T11:12:44.687Z,98484.20
2019-03-04T11:17:50.102Z,98484.20
2019-03-04T11:22:55.501Z,98482.81
2019-03-04T11:28:00.929Z,98468.87
2019-03-04T11:33:06.433Z,98501.45
2019-03-04T11:38:32.885Z,98506.33
2019-03-04T11:43:38.210Z,98506.67
2019-03-04T11:48:43.609Z,98525.83
2019-03-04T11:53:48.873Z,98532.22
2019-03-04T11:58:57.127Z,98527.30
2019-03-04T12:04:02.558Z,98537.94
2019-03-04T12:09:14.273Z,98530.25
2019-03-04T12:14:19.509Z,98528.78
2019-03-04T12:19:24.838Z,98539.41
2019-03-04T12:24:30.211Z,98540.82
2019-03-04T12:29:36.771Z,98534.59
2019-03-04T12:34:42.249Z,98546.91
2019-03-04T12:39:47.587Z,98535.63
2019-03-04T12:44:54.814Z,98537.90
2019-03-04T12:50:00.347Z,98559.31
2019-03-04T12:55:07.024Z,98550.59
2019-03-04T13:00:15.130Z,98556.62
2019-03-04T13:05:20.679Z,98550.32
2019-03-04T13:10:26.081Z,98549.84
2019-03-04T13:15:31.460Z,98563.56
2019-03-04T13:20:39.583Z,98572.89
2019-03-04T13:25:44.891Z,98589.34
2019-03-04T13:30:50.372Z,98595.90
2019-03-04T13:35:55.616Z,98605.56
2019-03-04T13:41:01.584Z,98591.64
2019-03-04T13:46:07.071Z,98599.02
2019-03-04T13:51:12.372Z,98599.20
2019-03-04T13:56:17.757Z,98602.42
2019-03-04T14:01:24.556Z,98610.48
2019-03-04T14:06:30.110Z,98611.72
2019-03-04T14:11:35.622Z,98608.20
2019-03-04T14:16:41.040Z,98621.06
2019-03-04T14:21:46.449Z,98645.66
2019-03-04T14:26:51.854Z,98678.12
2019-03-04T14:31:57.327Z,98657.66
2019-03-04T14:37:03.388Z,98652.63
2019-03-04T14:42:08.776Z,98659.47
2019-03-04T14:47:14.025Z,98658.70
2019-03-04T14:52:19.248Z,98651.34
2019-03-04T14:57:24.608Z,98651.36
2019-03-04T15:02:29.906Z,98653.52
2019-03-04T15:07:36.675Z,98657.61
2019-03-04T15:12:42.371Z,98634.31
2019-03-04T15:17:47.800Z,98645.88
2019-03-04T15:22:53.316Z,98652.27
2019-03-04T15:28:10.495Z,98649.68
2019-03-04T15:33:18.428Z,98650.47
2019-03-04T15:38:23.122Z,98646.70
2019-03-04T15:43:28.890Z,98649.13
2019-03-04T15:48:34.485Z,98662.83
2019-03-04T15:53:39.812Z,98651.11
2019-03-04T15:58:45.035Z,98665.19
2019-03-04T16:03:50.226Z,98666.55
2019-03-04T16:08:55.501Z,98661.03
2019-03-04T16:14:00.781Z,98666.90
2019-03-04T16:19:05.972Z,98661.71
2019-03-04T16:24:11.256Z,98659.64
2019-03-04T16:29:16.558Z,98666.73
2019-03-04T16:34:21.816Z,98667.84
2019-03-04T16:39:27.120Z,98665.75
2019-03-04T16:44:32.435Z,98681.41
2019-03-04T16:49:40.803Z,98671.46
2019-03-04T16:54:48.808Z,98674.37
2019-03-04T16:59:54.266Z,98671.02
2019-03-04T17:04:59.746Z,98668.02
2019-03-04T17:10:06.230Z,98682.59
2019-03-04T17:15:13.951Z,98685.87
2019-03-04T17:20:19.801Z,98658.95
2019-03-04T17:25:25.297Z,98647.32
2019-03-04T17:30:30.566Z,98669.13
2019-03-04T17:35:35.920Z,98675.47
2019-03-04T17:40:41.311Z,98675.42
2019-03-04T17:45:46.567Z,98666.75
2019-03-04T17:50:51.947Z,98666.85
2019-03-04T17:55:57.260Z,98721.28
2019-03-04T18:01:03.526Z,98691.98
2019-03-04T18:06:08.709Z,98695.93
2019-03-04T18:11:13.902Z,98689.67
2019-03-04T18:16:19.198Z,98696.38
2019-03-04T18:21:24.401Z,98687.12
2019-03-04T18:26:34.438Z,98679.83
2019-03-04T18:31:46.901Z,98670.20
2019-03-04T18:37:08.067Z,98675.28
2019-03-04T18:42:32.612Z,98657.83
2019-03-04T18:47:49.106Z,98667.34
2019-03-04T18:52:54.636Z,98665.15
2019-03-04T18:58:00.051Z,98667.30
2019-03-04T19:03:05.386Z,98674.47
2019-03-04T19:08:10.656Z,98668.23
2019-03-04T19:13:15.872Z,98680.95
2019-03-04T19:18:21.276Z,98677.52
2019-03-04T19:23:26.471Z,98664.20
2019-03-04T19:28:31.780Z,98668.45
2019-03-04T19:33:37.166Z,98658.31
2019-03-04T19:38:42.424Z,98646.59
2019-03-04T19:43:47.774Z,98653.55
2019-03-04T19:48:54.557Z,98656.58
2019-03-04T19:53:59.990Z,98641.34
2019-03-04T19:59:05.180Z,98652.80
2019-03-04T20:04:10.441Z,98640.49
2019-03-04T20:09:15.759Z,98636.90
2019-03-04T20:14:21.239Z,98641.88
2019-03-04T20:19:26.561Z,98641.88
2019-03-04T20:24:31.897Z,98681.17
2019-03-04T20:29:38.468Z,98663.66
2019-03-04T20:34:43.798Z,98660.42
2019-03-04T20:39:49.105Z,98657.95
2019-03-04T20:44:54.466Z,98671.16
2019-03-04T20:49:59.730Z,98667.56
2019-03-04T20:55:05.705Z,98670.34
2019-03-04T21:00:14.472Z,98667.36
2019-03-04T21:05:19.985Z,98666.42
2019-03-04T21:10:25.491Z,98675.92
2019-03-04T21:15:33.977Z,98683.96
2019-03-04T21:20:39.124Z,98675.80
2019-03-04T21:25:51.495Z,98669.13
2019-03-04T21:31:13.596Z,98674.48
2019-03-04T21:36:38.196Z,98673.62
2019-03-04T21:41:53.740Z,98677.89
2019-03-04T21:47:05.762Z,98674.36
2019-03-04T21:52:23.259Z,98654.97
2019-03-04T21:57:35.451Z,98642.48
2019-03-04T22:02:53.518Z,98642.48
2019-03-04T22:07:58.737Z,98646.97
2019-03-04T22:13:03.998Z,98637.52
2019-03-04T22:18:09.889Z,98654.86
2019-03-04T22:23:15.165Z,98657.08
2019-03-04T22:28:20.436Z,98664.86
2019-03-04T22:33:25.586Z,98661.22
2019-03-04T22:38:31.011Z,98655.66
2019-03-04T22:43:36.337Z,98663.74
2019-03-04T22:48:41.704Z,98670.38
2019-03-04T22:53:47.023Z,98665.31
2019-03-04T22:58:52.410Z,98661.17
2019-03-04T23:04:06.850Z,98668.08
2019-03-04T23:09:13.911Z,98673.81
2019-03-04T23:14:23.991Z,98658.05
2019-03-04T23:19:29.351Z,98669.17
2019-03-04T23:24:34.650Z,98672.72
2019-03-04T23:29:39.971Z,98668.12
2019-03-04T23:34:45.305Z,98657.75
2019-03-04T23:39:50.750Z,98653.63
2019-03-04T23:44:56.210Z,98667.53
2019-03-04T23:50:12.871Z,98666.63
2019-03-04T23:55:18.252Z,98666.97
